logo
Search for airport 
image banner adimage banner adimage banner ad
image banner ad

FAAP - Aviators Paradise

Located in Ifafi, South Africa

ICAO - , IATA -

Data provided by Airmate  

General information

Coordinates: S25°41'38" E27°46'57"
Elevation is 3800 feet MSL.
 
View others Airports in Mpumalanga

Operational data

Special qualification required
Current time UTC:
Current local time:
Weather at : FALA - Lanseria International ( 31 km )
METAR: FALA 161900Z 18004KT CAVOK 13/M08 Q1024 NOSIG
TAF: TAF FALA 161600Z 1618/1718 VRB03KT CAVOK TX23/1713Z TN06/1703Z BECMG 1711/1713 30010KT BECMG 1716/1718 VRB03KT
View NOTAMs / SUP AIP / TFR affecting this airport [VIEW]
Communications frequencies: [VIEW]

Runways:

RWY identifierQFULength (ft)Width (ft)SurfaceLDA (ft)
03246133UNK
21246133UNK

Airport contact information

Address: Ifafi South Africa

Satellite view of FAAP